createdAt,value
2023-05-22T00:00:55.066Z,19.90
2023-05-22T00:03:21.622Z,19.90
2023-05-22T00:05:48.205Z,19.90
2023-05-22T00:08:14.731Z,19.90
2023-05-22T00:10:41.394Z,19.90
2023-05-22T00:13:08.031Z,19.90
2023-05-22T00:15:34.556Z,19.90
2023-05-22T00:18:01.114Z,19.90
2023-05-22T00:20:27.700Z,19.80
2023-05-22T00:22:54.246Z,19.90
2023-05-22T00:25:20.800Z,19.80
2023-05-22T00:27:47.341Z,19.80
2023-05-22T00:30:13.904Z,19.80
2023-05-22T00:32:40.478Z,19.80
2023-05-22T00:35:07.040Z,19.80
2023-05-22T00:37:33.548Z,19.80
2023-05-22T00:40:00.134Z,19.80
2023-05-22T00:42:26.653Z,19.80
2023-05-22T00:44:53.197Z,19.80
2023-05-22T00:47:19.731Z,19.80
2023-05-22T00:49:46.272Z,19.80
2023-05-22T00:52:12.773Z,19.80
2023-05-22T00:54:39.287Z,19.70
2023-05-22T00:57:05.981Z,19.70
2023-05-22T00:59:32.527Z,19.70
2023-05-22T01:01:59.096Z,19.70
2023-05-22T01:04:25.690Z,19.70
2023-05-22T01:06:52.190Z,19.80
2023-05-22T01:09:18.741Z,19.70
2023-05-22T01:11:45.259Z,19.80
2023-05-22T01:14:11.801Z,19.70
2023-05-22T01:16:38.412Z,19.70
2023-05-22T01:19:05.016Z,19.70
2023-05-22T01:21:31.587Z,19.80
2023-05-22T01:23:58.130Z,19.70
2023-05-22T01:26:24.704Z,19.70
2023-05-22T01:28:51.259Z,19.70
2023-05-22T01:31:17.798Z,19.80
2023-05-22T01:33:44.455Z,19.70
2023-05-22T01:36:11.024Z,19.70
2023-05-22T01:38:37.541Z,19.70
2023-05-22T01:41:04.062Z,19.70
2023-05-22T01:43:30.582Z,19.70
2023-05-22T01:45:57.115Z,19.70
2023-05-22T01:48:23.649Z,19.70
2023-05-22T01:50:50.172Z,19.70
2023-05-22T01:53:16.680Z,19.60
2023-05-22T01:55:44.188Z,19.70
2023-05-22T01:58:10.689Z,19.70
2023-05-22T02:00:37.334Z,19.70
2023-05-22T02:03:04.153Z,19.70
2023-05-22T02:05:30.783Z,19.70
2023-05-22T02:07:57.313Z,19.70
2023-05-22T02:10:23.828Z,19.70
2023-05-22T02:12:50.330Z,19.70
2023-05-22T02:15:16.843Z,19.70
2023-05-22T02:17:43.419Z,19.70
2023-05-22T02:20:10.001Z,19.70
2023-05-22T02:22:36.599Z,19.70
2023-05-22T02:25:03.170Z,19.70
2023-05-22T02:27:29.719Z,19.60
2023-05-22T02:29:56.226Z,19.60
2023-05-22T02:32:22.749Z,19.70
2023-05-22T02:34:49.305Z,19.70
2023-05-22T02:37:15.820Z,19.60
2023-05-22T02:39:42.332Z,19.60
2023-05-22T02:42:08.852Z,19.60
2023-05-22T02:44:35.368Z,19.70
2023-05-22T02:47:02.038Z,19.60
2023-05-22T02:49:28.570Z,19.60
2023-05-22T02:51:55.090Z,19.70
2023-05-22T02:54:21.599Z,19.60
2023-05-22T02:56:48.122Z,19.60
2023-05-22T02:59:14.653Z,19.60
2023-05-22T03:01:41.180Z,19.60
2023-05-22T03:04:07.862Z,19.70
2023-05-22T03:06:34.417Z,19.60
2023-05-22T03:09:00.954Z,19.70
2023-05-22T03:11:27.508Z,19.60
2023-05-22T03:13:54.037Z,19.70
2023-05-22T03:16:20.591Z,19.60
2023-05-22T03:18:47.228Z,19.60
2023-05-22T03:21:13.795Z,19.60
2023-05-22T03:23:40.337Z,19.60
2023-05-22T03:26:06.866Z,19.60
2023-05-22T03:28:33.386Z,19.60
2023-05-22T03:30:59.919Z,19.60
2023-05-22T03:33:26.497Z,19.60
2023-05-22T03:35:53.053Z,19.40
2023-05-22T03:38:19.578Z,19.60
2023-05-22T03:40:46.087Z,19.60
2023-05-22T03:43:12.764Z,19.60
2023-05-22T03:45:39.344Z,19.60
2023-05-22T03:48:05.977Z,19.60
2023-05-22T03:50:32.535Z,19.60
2023-05-22T03:52:59.059Z,19.60
2023-05-22T03:55:25.572Z,19.60
2023-05-22T03:57:52.101Z,19.60
2023-05-22T04:00:18.639Z,19.60
2023-05-22T04:02:45.523Z,19.50
2023-05-22T04:05:12.224Z,19.50
2023-05-22T04:07:38.786Z,19.50
2023-05-22T04:10:05.325Z,19.50
2023-05-22T04:12:31.877Z,19.50
2023-05-22T04:14:58.427Z,19.50
2023-05-22T04:17:24.988Z,19.50
2023-05-22T04:19:51.526Z,19.50
2023-05-22T04:22:18.037Z,19.60
2023-05-22T04:24:50.319Z,19.50
2023-05-22T04:27:16.872Z,19.60
2023-05-22T04:29:43.410Z,19.50
2023-05-22T04:32:09.966Z,19.60
2023-05-22T04:34:36.482Z,19.60
2023-05-22T04:37:03.000Z,19.40
2023-05-22T04:39:29.571Z,19.50
2023-05-22T04:41:56.102Z,19.50
2023-05-22T04:44:22.610Z,19.50
2023-05-22T04:46:49.159Z,19.50
2023-05-22T04:49:15.726Z,19.60
2023-05-22T04:51:42.251Z,19.60
2023-05-22T04:54:08.820Z,19.50
2023-05-22T04:56:37.252Z,19.50
2023-05-22T04:59:04.053Z,19.50
2023-05-22T05:01:32.389Z,19.50
2023-05-22T05:03:59.964Z,19.50
2023-05-22T05:06:26.537Z,19.50
2023-05-22T05:08:53.075Z,19.50
2023-05-22T05:11:19.604Z,19.60
2023-05-22T05:13:46.120Z,19.50
2023-05-22T05:16:12.706Z,19.50
2023-05-22T05:18:39.241Z,19.60
2023-05-22T05:21:05.759Z,19.50
2023-05-22T05:23:32.271Z,19.50
2023-05-22T05:25:58.815Z,19.50
2023-05-22T05:28:25.336Z,19.60
2023-05-22T05:30:51.870Z,19.60
2023-05-22T05:33:18.384Z,19.60
2023-05-22T05:35:44.896Z,19.60
2023-05-22T05:38:11.460Z,19.60
2023-05-22T05:40:38.277Z,19.50
2023-05-22T05:43:05.913Z,19.60
2023-05-22T05:45:33.830Z,19.60
2023-05-22T05:48:00.433Z,19.50
2023-05-22T05:50:26.990Z,19.50
2023-05-22T05:52:53.506Z,19.60
2023-05-22T05:55:20.026Z,19.60
2023-05-22T05:57:46.576Z,19.60
2023-05-22T06:00:13.119Z,19.60
2023-05-22T06:02:39.741Z,19.60
2023-05-22T06:05:06.368Z,19.60
2023-05-22T06:07:32.900Z,19.60
2023-05-22T06:09:59.450Z,19.60
2023-05-22T06:12:26.364Z,19.60
2023-05-22T06:14:52.902Z,19.60
2023-05-22T06:17:19.428Z,19.60
2023-05-22T06:19:45.952Z,19.60
2023-05-22T06:22:12.479Z,19.60
2023-05-22T06:24:39.032Z,19.60
2023-05-22T06:27:05.565Z,19.60
2023-05-22T06:29:32.084Z,19.60
2023-05-22T06:31:58.659Z,19.60
2023-05-22T06:34:25.286Z,19.60
2023-05-22T06:36:51.928Z,19.60
2023-05-22T06:39:18.448Z,19.60
2023-05-22T06:41:44.995Z,19.60
2023-05-22T06:44:11.534Z,19.60
2023-05-22T06:46:38.158Z,19.60
2023-05-22T06:49:04.738Z,19.60
2023-05-22T06:51:31.284Z,19.60
2023-05-22T06:53:57.817Z,19.60
2023-05-22T06:56:24.362Z,19.60
2023-05-22T06:58:50.888Z,19.60
2023-05-22T07:01:17.443Z,19.60
2023-05-22T07:03:44.001Z,19.60
2023-05-22T07:06:14.624Z,19.60
2023-05-22T07:08:41.321Z,19.60
2023-05-22T07:11:07.853Z,19.60
2023-05-22T07:13:34.383Z,19.60
2023-05-22T07:16:00.967Z,19.60
2023-05-22T07:18:27.520Z,19.60
2023-05-22T07:20:54.039Z,19.60
2023-05-22T07:23:26.557Z,19.60
2023-05-22T07:25:53.094Z,19.60
2023-05-22T07:28:19.623Z,19.60
2023-05-22T07:30:46.149Z,19.60
2023-05-22T07:33:12.795Z,19.60
2023-05-22T07:35:39.359Z,19.70
2023-05-22T07:38:05.879Z,19.70
2023-05-22T07:40:32.472Z,19.70
2023-05-22T07:42:59.109Z,19.70
2023-05-22T07:45:25.627Z,19.70
2023-05-22T07:47:54.082Z,19.70
2023-05-22T07:50:22.114Z,19.70
2023-05-22T07:52:48.621Z,19.70
2023-05-22T07:55:15.138Z,19.70
2023-05-22T07:57:41.679Z,19.70
2023-05-22T08:00:08.200Z,19.70
2023-05-22T08:02:34.822Z,19.70
2023-05-22T08:05:01.466Z,19.70
2023-05-22T08:07:28.052Z,19.70
2023-05-22T08:09:54.667Z,19.70
2023-05-22T08:12:21.186Z,19.70
2023-05-22T08:14:47.726Z,19.70
2023-05-22T08:17:14.366Z,19.70
2023-05-22T08:19:41.164Z,19.80
2023-05-22T08:22:08.863Z,19.80
2023-05-22T08:24:35.383Z,19.70
2023-05-22T08:27:01.925Z,19.70
2023-05-22T08:29:28.454Z,19.70
2023-05-22T08:31:54.992Z,19.80
2023-05-22T08:34:21.532Z,19.80
2023-05-22T08:36:48.062Z,19.70
2023-05-22T08:39:14.615Z,19.80
2023-05-22T08:41:41.145Z,19.80
2023-05-22T08:44:07.728Z,19.80
2023-05-22T08:46:34.289Z,19.80
2023-05-22T08:49:00.856Z,19.80
2023-05-22T08:51:27.389Z,19.80
2023-05-22T08:53:53.923Z,19.80
2023-05-22T08:56:20.468Z,19.80
2023-05-22T08:58:50.542Z,19.80
2023-05-22T09:01:17.087Z,19.80
2023-05-22T09:03:43.727Z,19.80
2023-05-22T09:06:10.286Z,19.80
2023-05-22T09:08:36.821Z,19.90
2023-05-22T09:11:03.327Z,19.90
2023-05-22T09:13:29.836Z,19.90
2023-05-22T09:15:56.368Z,19.90
2023-05-22T09:18:22.902Z,19.90
2023-05-22T09:20:49.449Z,19.90
2023-05-22T09:23:15.975Z,19.90
2023-05-22T09:25:42.490Z,19.90
2023-05-22T09:31:00.662Z,19.90
2023-05-22T09:33:29.070Z,19.90
2023-05-22T09:35:55.615Z,19.90
2023-05-22T09:38:22.151Z,19.90
2023-05-22T09:40:48.786Z,20.00
2023-05-22T09:43:15.304Z,20.00
2023-05-22T09:45:41.840Z,20.00
2023-05-22T09:48:08.551Z,20.00
2023-05-22T09:50:35.201Z,20.00
2023-05-22T09:53:01.722Z,20.00
2023-05-22T09:55:28.243Z,20.00
2023-05-22T09:57:54.772Z,20.00
2023-05-22T10:00:26.599Z,20.00
2023-05-22T10:02:53.133Z,20.10
2023-05-22T10:05:19.656Z,20.10
2023-05-22T10:07:46.184Z,20.10
2023-05-22T10:10:12.729Z,20.10
2023-05-22T10:12:39.276Z,20.10
2023-05-22T10:15:05.802Z,20.10
2023-05-22T10:17:32.402Z,20.10
2023-05-22T10:19:58.943Z,20.10
2023-05-22T10:22:25.463Z,20.20
2023-05-22T10:24:52.009Z,20.20
2023-05-22T10:27:20.608Z,20.10
2023-05-22T10:29:47.149Z,20.20
2023-05-22T10:32:13.715Z,20.20
2023-05-22T10:34:40.231Z,20.20
2023-05-22T10:37:17.122Z,20.20
2023-05-22T10:39:44.820Z,20.20
2023-05-22T10:42:14.670Z,20.20
2023-05-22T10:44:41.185Z,20.20
2023-05-22T10:47:07.757Z,20.20
2023-05-22T10:49:34.297Z,20.20
2023-05-22T10:52:00.836Z,20.20
2023-05-22T10:54:27.342Z,20.20
2023-05-22T10:56:53.882Z,20.30
2023-05-22T10:59:20.532Z,20.30
2023-05-22T11:01:47.133Z,20.30
2023-05-22T11:04:13.776Z,20.30
2023-05-22T11:06:40.380Z,20.30
2023-05-22T11:09:06.918Z,20.20
2023-05-22T11:11:33.474Z,20.30
2023-05-22T11:14:08.812Z,20.40
2023-05-22T11:16:35.384Z,20.40
2023-05-22T11:19:07.259Z,20.40
2023-05-22T11:21:41.158Z,20.40
2023-05-22T11:24:07.718Z,20.40
2023-05-22T11:26:34.250Z,20.40
2023-05-22T11:29:00.956Z,20.40
2023-05-22T11:31:27.528Z,20.40
2023-05-22T11:33:54.066Z,20.40
2023-05-22T11:36:20.609Z,20.40
2023-05-22T11:38:47.150Z,20.40
2023-05-22T11:41:13.670Z,20.50
2023-05-22T11:43:40.206Z,20.50
2023-05-22T11:46:06.752Z,20.50
2023-05-22T11:48:33.312Z,20.50
2023-05-22T11:50:59.836Z,20.50
2023-05-22T11:53:26.340Z,20.50
2023-05-22T11:55:52.869Z,20.60
2023-05-22T12:01:09.426Z,20.50
2023-05-22T12:03:36.033Z,20.60
2023-05-22T12:06:02.794Z,20.50
2023-05-22T12:08:29.398Z,20.60
2023-05-22T12:10:55.967Z,20.60
2023-05-22T12:13:22.544Z,20.60
2023-05-22T12:15:49.105Z,20.50
2023-05-22T12:18:15.617Z,20.60
2023-05-22T12:20:42.146Z,20.60
2023-05-22T12:23:08.690Z,20.60
2023-05-22T12:25:35.222Z,20.60
2023-05-22T12:28:01.747Z,20.70
2023-05-22T12:30:28.284Z,20.70
2023-05-22T12:32:54.943Z,20.70
2023-05-22T12:35:21.511Z,20.70
2023-05-22T12:37:48.039Z,20.70
2023-05-22T12:40:14.566Z,20.70
2023-05-22T12:42:41.076Z,20.70
2023-05-22T12:45:07.612Z,20.70
2023-05-22T12:47:34.135Z,20.70
2023-05-22T12:50:00.687Z,20.70
2023-05-22T12:52:27.212Z,20.70
2023-05-22T12:54:53.714Z,20.70
2023-05-22T12:57:20.268Z,20.60
2023-05-22T12:59:46.829Z,20.70
2023-05-22T13:02:13.330Z,20.80
2023-05-22T13:04:39.967Z,20.80
2023-05-22T13:07:09.054Z,20.80
2023-05-22T13:09:35.619Z,20.80
2023-05-22T13:12:02.221Z,20.80
2023-05-22T13:14:28.902Z,20.80
2023-05-22T13:16:55.450Z,20.80
2023-05-22T13:19:22.010Z,20.80
2023-05-22T13:21:48.597Z,20.80
2023-05-22T13:24:15.122Z,20.90
2023-05-22T13:26:44.760Z,20.80
2023-05-22T13:29:11.278Z,20.90
2023-05-22T13:31:37.876Z,20.90
2023-05-22T13:34:04.492Z,20.90
2023-05-22T13:36:31.066Z,20.90
2023-05-22T13:38:57.597Z,20.90
2023-05-22T13:41:24.132Z,20.90
2023-05-22T13:43:50.660Z,20.90
2023-05-22T13:46:17.271Z,20.90
2023-05-22T13:48:43.841Z,20.90
2023-05-22T13:51:10.387Z,20.90
2023-05-22T13:53:36.927Z,20.90
2023-05-22T13:56:03.481Z,21.00
2023-05-22T13:58:30.016Z,20.90
2023-05-22T14:00:56.563Z,21.00
2023-05-22T14:03:23.209Z,21.00
2023-05-22T14:05:49.760Z,21.00
2023-05-22T14:08:16.317Z,20.90
2023-05-22T14:10:42.841Z,21.00
2023-05-22T14:13:09.369Z,21.00
2023-05-22T14:15:35.895Z,21.00
2023-05-22T14:18:02.532Z,21.10
2023-05-22T14:20:29.095Z,21.10
2023-05-22T14:22:58.429Z,21.10
2023-05-22T14:25:25.177Z,21.10
2023-05-22T14:27:51.698Z,21.10
2023-05-22T14:30:18.264Z,21.10
2023-05-22T14:32:44.814Z,21.10
2023-05-22T14:35:11.350Z,21.10
2023-05-22T14:37:37.885Z,21.10
2023-05-22T14:40:04.389Z,21.10
2023-05-22T14:42:30.898Z,21.10
2023-05-22T14:44:57.426Z,21.10
2023-05-22T14:47:23.972Z,21.20
2023-05-22T14:49:50.459Z,21.10
2023-05-22T14:52:16.978Z,21.10
2023-05-22T14:54:43.502Z,21.20
2023-05-22T14:57:10.038Z,21.20
2023-05-22T14:59:36.577Z,21.20
2023-05-22T15:02:08.994Z,21.20
2023-05-22T15:04:35.650Z,21.20
2023-05-22T15:07:02.178Z,21.20
2023-05-22T15:09:28.708Z,21.20
2023-05-22T15:11:55.239Z,21.20
2023-05-22T15:14:21.838Z,21.20
2023-05-22T15:16:48.493Z,21.20
2023-05-22T15:19:15.166Z,21.20
2023-05-22T15:21:41.694Z,21.20
2023-05-22T15:24:08.225Z,21.20
2023-05-22T15:26:34.754Z,21.20
2023-05-22T15:29:01.324Z,21.20
2023-05-22T15:31:27.924Z,21.20
2023-05-22T15:33:54.481Z,21.20
2023-05-22T15:36:21.017Z,21.20
2023-05-22T15:38:47.547Z,21.20
2023-05-22T15:41:14.047Z,21.20
2023-05-22T15:43:40.592Z,21.20
2023-05-22T15:46:07.181Z,21.10
2023-05-22T15:48:33.748Z,21.20
2023-05-22T15:51:00.279Z,21.20
2023-05-22T15:53:26.799Z,21.20
2023-05-22T15:55:53.335Z,21.20
2023-05-22T15:58:19.852Z,21.20
2023-05-22T16:00:46.364Z,21.20
2023-05-22T16:03:12.979Z,21.20
2023-05-22T16:05:44.924Z,21.20
2023-05-22T16:08:11.475Z,21.20
2023-05-22T16:10:38.000Z,21.20
2023-05-22T16:13:04.525Z,21.20
2023-05-22T16:15:31.055Z,21.30
2023-05-22T16:17:57.617Z,21.30
2023-05-22T16:20:24.222Z,21.30
2023-05-22T16:22:50.734Z,21.30
2023-05-22T16:25:17.352Z,21.30
2023-05-22T16:27:43.928Z,21.20
2023-05-22T16:30:10.449Z,21.30
2023-05-22T16:32:37.016Z,21.30
2023-05-22T16:35:03.637Z,21.30
2023-05-22T16:37:30.160Z,21.20
2023-05-22T16:39:56.684Z,21.30
2023-05-22T16:42:23.215Z,21.30
2023-05-22T16:44:49.764Z,21.30
2023-05-22T16:47:16.296Z,21.30
2023-05-22T16:49:42.822Z,21.30
2023-05-22T16:52:09.348Z,21.30
2023-05-22T16:54:35.894Z,21.30
2023-05-22T16:57:02.403Z,21.30
2023-05-22T16:59:28.911Z,21.30
2023-05-22T17:01:55.605Z,21.20
2023-05-22T17:04:22.143Z,21.20
2023-05-22T17:06:48.713Z,21.30
2023-05-22T17:09:15.245Z,21.20
2023-05-22T17:11:41.772Z,21.20
2023-05-22T17:14:08.305Z,21.30
2023-05-22T17:16:35.010Z,21.20
2023-05-22T17:19:01.564Z,21.20
2023-05-22T17:21:28.155Z,21.20
2023-05-22T17:23:54.687Z,21.20
2023-05-22T17:26:21.221Z,21.20
2023-05-22T17:28:47.806Z,21.20
2023-05-22T17:31:14.346Z,21.20
2023-05-22T17:33:40.884Z,21.20
2023-05-22T17:36:07.414Z,21.20
2023-05-22T17:38:33.927Z,21.20
2023-05-22T17:41:00.491Z,21.20
2023-05-22T17:43:27.032Z,21.20
2023-05-22T17:45:53.577Z,21.20
2023-05-22T17:48:20.108Z,21.20
2023-05-22T17:50:46.643Z,21.20
2023-05-22T17:53:13.183Z,21.10
2023-05-22T17:55:39.712Z,21.20
2023-05-22T17:58:06.498Z,21.20
2023-05-22T18:00:33.036Z,21.20
2023-05-22T18:02:59.657Z,21.20
2023-05-22T18:05:26.276Z,21.20
2023-05-22T18:07:52.826Z,21.10
2023-05-22T18:10:19.347Z,21.10
2023-05-22T18:12:45.885Z,21.10
2023-05-22T18:15:12.444Z,21.10
2023-05-22T18:17:39.044Z,21.10
2023-05-22T18:20:05.587Z,21.10
2023-05-22T18:22:32.125Z,21.10
2023-05-22T18:24:58.646Z,21.10
2023-05-22T18:27:25.221Z,21.10
2023-05-22T18:29:51.790Z,21.10
2023-05-22T18:32:18.423Z,21.10
2023-05-22T18:34:44.934Z,21.10
2023-05-22T18:37:11.463Z,21.00
2023-05-22T18:39:37.986Z,21.00
2023-05-22T18:42:04.508Z,21.10
2023-05-22T18:44:31.026Z,21.10
2023-05-22T18:46:57.609Z,21.10
2023-05-22T18:49:24.162Z,21.00
2023-05-22T18:51:50.700Z,21.00
2023-05-22T18:54:17.243Z,20.90
2023-05-22T18:56:43.763Z,21.00
2023-05-22T18:59:10.300Z,21.00
2023-05-22T19:01:36.899Z,21.00
2023-05-22T19:04:04.632Z,21.00
2023-05-22T19:06:33.085Z,21.00
2023-05-22T19:08:59.624Z,21.00
2023-05-22T19:11:26.176Z,21.00
2023-05-22T19:13:52.698Z,21.00
2023-05-22T19:16:19.238Z,21.10
2023-05-22T19:18:45.802Z,21.00
2023-05-22T19:21:12.352Z,21.00
2023-05-22T19:23:38.865Z,21.00
2023-05-22T19:26:05.380Z,21.00
2023-05-22T19:28:31.931Z,21.00
2023-05-22T19:30:58.468Z,21.00
2023-05-22T19:33:25.019Z,21.00
2023-05-22T19:35:51.545Z,21.00
2023-05-22T19:38:18.130Z,21.00
2023-05-22T19:40:44.646Z,21.00
2023-05-22T19:43:15.068Z,21.00
2023-05-22T19:45:41.579Z,20.90
2023-05-22T19:48:08.178Z,21.00
2023-05-22T19:50:34.800Z,20.90
2023-05-22T19:53:01.316Z,21.00
2023-05-22T19:55:27.890Z,21.00
2023-05-22T19:57:54.447Z,21.00
2023-05-22T20:00:21.052Z,21.00
2023-05-22T20:02:47.637Z,20.90
2023-05-22T20:05:14.214Z,20.90
2023-05-22T20:07:40.732Z,20.90
2023-05-22T20:10:07.274Z,20.90
2023-05-22T20:12:33.793Z,20.90
2023-05-22T20:15:00.363Z,20.90
2023-05-22T20:17:26.924Z,20.90
2023-05-22T20:19:53.495Z,20.90
2023-05-22T20:22:20.020Z,20.90
2023-05-22T20:24:46.567Z,20.90
2023-05-22T20:27:13.091Z,20.90
2023-05-22T20:29:39.618Z,20.90
2023-05-22T20:32:06.236Z,20.90
2023-05-22T20:34:32.802Z,20.90
2023-05-22T20:36:59.325Z,20.80
2023-05-22T20:39:25.866Z,20.90
2023-05-22T20:41:52.403Z,20.90
2023-05-22T20:44:21.146Z,20.90
2023-05-22T20:46:47.673Z,20.90
2023-05-22T20:49:14.216Z,20.90
2023-05-22T20:51:40.766Z,20.90
2023-05-22T20:54:07.308Z,20.90
2023-05-22T20:56:33.865Z,20.90
2023-05-22T20:59:00.408Z,20.90
2023-05-22T21:01:27.018Z,20.90
2023-05-22T21:03:53.658Z,20.80
2023-05-22T21:06:20.228Z,20.80
2023-05-22T21:08:46.862Z,20.80
2023-05-22T21:11:13.399Z,20.90
2023-05-22T21:13:39.907Z,20.80
2023-05-22T21:16:06.445Z,20.80
2023-05-22T21:18:33.127Z,20.80
2023-05-22T21:20:59.685Z,20.80
2023-05-22T21:23:26.198Z,20.80
2023-05-22T21:25:52.717Z,20.80
2023-05-22T21:28:19.228Z,20.70
2023-05-22T21:30:45.748Z,20.70
2023-05-22T21:33:12.279Z,20.70
2023-05-22T21:35:38.805Z,20.70
2023-05-22T21:38:05.342Z,20.70
2023-05-22T21:40:31.885Z,20.70
2023-05-22T21:42:58.403Z,20.70
2023-05-22T21:45:24.968Z,20.70
2023-05-22T21:47:51.523Z,20.70
2023-05-22T21:50:21.201Z,20.70
2023-05-22T21:52:47.727Z,20.70
2023-05-22T21:55:14.273Z,20.70
2023-05-22T21:57:40.812Z,20.70
2023-05-22T22:00:07.334Z,20.70
2023-05-22T22:02:33.943Z,20.70
2023-05-22T22:05:00.548Z,20.70
2023-05-22T22:07:27.111Z,20.70
2023-05-22T22:09:53.621Z,20.60
2023-05-22T22:12:20.178Z,20.70
2023-05-22T22:14:46.736Z,20.70
2023-05-22T22:17:13.308Z,20.70
2023-05-22T22:19:39.819Z,20.70
2023-05-22T22:22:06.624Z,20.70
2023-05-22T22:24:33.130Z,20.60
2023-05-22T22:26:59.655Z,20.70
2023-05-22T22:29:26.217Z,20.60
2023-05-22T22:31:52.925Z,20.60
2023-05-22T22:34:19.530Z,20.60
2023-05-22T22:36:46.063Z,20.60
2023-05-22T22:39:12.786Z,20.60
2023-05-22T22:41:39.336Z,20.60
2023-05-22T22:44:05.893Z,20.60
2023-05-22T22:46:32.492Z,20.60
2023-05-22T22:48:59.039Z,20.60
2023-05-22T22:51:25.572Z,20.60
2023-05-22T22:53:52.122Z,20.60
2023-05-22T22:56:18.713Z,20.60
2023-05-22T22:58:45.248Z,20.60
2023-05-22T23:01:11.825Z,20.50
2023-05-22T23:03:38.391Z,20.60
2023-05-22T23:06:04.921Z,20.60
2023-05-22T23:08:31.462Z,20.50
2023-05-22T23:10:57.969Z,20.60
2023-05-22T23:13:24.563Z,20.60
2023-05-22T23:15:51.202Z,20.60
2023-05-22T23:18:17.806Z,20.60
2023-05-22T23:20:44.408Z,20.50
2023-05-22T23:23:10.940Z,20.50
2023-05-22T23:25:37.524Z,20.50
2023-05-22T23:28:04.067Z,20.50
2023-05-22T23:30:30.624Z,20.50
2023-05-22T23:32:57.214Z,20.50
2023-05-22T23:35:23.789Z,20.50
2023-05-22T23:37:50.330Z,20.50
2023-05-22T23:40:16.880Z,20.50
2023-05-22T23:42:43.385Z,20.50
2023-05-22T23:45:09.931Z,20.40
2023-05-22T23:47:36.516Z,20.40
2023-05-22T23:50:03.070Z,20.50
2023-05-22T23:52:29.609Z,20.40
2023-05-22T23:54:56.121Z,20.40
2023-05-22T23:57:22.672Z,20.40
2023-05-22T23:59:49.196Z,20.50
